logo
Search for airport 
image banner adimage banner adimage banner ad
image banner ad

VT40 - Wenlock Crossing

Located in Ferdinand, United States

ICAO - VT40, IATA -

Data provided by Airmate  

General information

Coordinates: N44°46'37" W71°45'5"
Elevation is 1157 feet MSL.
Magnetic variation is -17° East
View others Airports in Vermont

Operational data

Special qualification required
Current time UTC:
Current local time:
Weather at : KCDA - Caledonia County ( 31 km )
METAR: KCDA 152055Z AUTO 26005KT 10SM BKN050 30/19 A2983 RMK AO2 T02950187 PWINO
View NOTAMs / SUP AIP / TFR affecting this airport [VIEW]
Communications frequencies: [VIEW]

Runways:

RWY identifierQFULength (ft)Width (ft)SurfaceLDA (ft)
H1195150GRAVEL / CINDERS / CRUSHED ROCK / CORAL/SHELLS / SLAG
195150GRAVEL / CINDERS / CRUSHED ROCK / CORAL/SHELLS / SLAG

Airport contact information

Address: Ferdinand United States

Satellite view of VT40